Time;durP1;ratioP1;P1;durP2;ratioP2;P2;SDS_P1;SDS_P2;PMS_P1;PMS_P2;Temp;Humidity;BMP_temperature;BMP_pressure;BME280_temperature;BME280_humidity;BME280_pressure;Samples;Min_cycle;Max_cycle;Signal;HPM_P1;HPM_P2
2022/09/19 00:01:30;;;;;;;2.50;1.50;;;10.50;87.90;;;;;;5009582;28;20435;-60
2022/09/19 00:04:02;;;;;;;1.70;1.60;;;10.50;90.00;;;;;;5002879;28;20538;-60
2022/09/19 00:06:29;;;;;;;2.50;1.50;;;10.50;91.40;;;;;;5006721;28;20932;-61
2022/09/19 00:08:57;;;;;;;3.83;1.70;;;10.40;90.80;;;;;;5007014;28;20526;-61
2022/09/19 00:11:24;;;;;;;2.60;1.60;;;10.40;91.30;;;;;;5009072;28;20526;-60
2022/09/19 00:13:52;;;;;;;3.23;1.67;;;10.40;90.60;;;;;;5004818;28;20427;-61
2022/09/19 00:16:38;;;;;;;5.37;1.60;;;10.40;90.90;;;;;;5002865;28;20463;-60
2022/09/19 00:19:07;;;;;;;3.40;2.03;;;10.40;90.10;;;;;;5000795;28;20435;-60
2022/09/19 00:21:35;;;;;;;3.30;1.70;;;10.40;89.30;;;;;;5023281;28;20510;-60
2022/09/19 00:26:46;;;;;;;2.30;1.67;;;10.40;91.50;;;;;;5005590;28;20561;-59
2022/09/19 00:29:15;;;;;;;2.33;1.70;;;10.40;91.10;;;;;;5008875;28;20479;-60
2022/09/19 00:31:42;;;;;;;1.80;1.43;;;10.40;90.00;;;;;;5009559;28;20179;-60
2022/09/19 00:34:09;;;;;;;4.60;1.33;;;10.30;90.10;;;;;;5004161;28;20516;-60
2022/09/19 00:36:36;;;;;;;1.50;1.50;;;10.30;88.10;;;;;;5007003;28;20471;-61
2022/09/19 00:39:03;;;;;;;1.80;1.47;;;10.30;88.50;;;;;;5006872;28;20439;-60
2022/09/19 00:41:30;;;;;;;3.10;1.57;;;10.30;91.10;;;;;;5008833;28;21259;-60
2022/09/19 00:43:59;;;;;;;2.93;1.60;;;10.30;91.60;;;;;;5005578;28;20518;-60
2022/09/19 00:46:27;;;;;;;1.27;1.10;;;10.30;92.80;;;;;;5007754;28;20993;-61
2022/09/19 00:48:59;;;;;;;1.70;1.40;;;10.20;92.20;;;;;;5009090;28;20617;-61
2022/09/19 00:51:37;;;;;;;1.87;1.60;;;10.20;91.20;;;;;;5007003;28;20519;-61
2022/09/19 00:54:12;;;;;;;1.87;1.40;;;10.10;88.90;;;;;;5001929;28;20459;-59
2022/09/19 00:56:42;;;;;;;6.57;1.60;;;10.00;86.40;;;;;;5007635;28;20536;-60
2022/09/19 00:59:09;;;;;;;5.07;1.40;;;10.00;85.90;;;;;;5008347;28;20980;-60
2022/09/19 01:01:35;;;;;;;1.33;1.23;;;10.00;86.90;;;;;;5008248;28;20435;-61
2022/09/19 01:04:01;;;;;;;2.20;1.43;;;9.90;89.50;;;;;;5005651;28;20519;-61
2022/09/19 01:06:48;;;;;;;1.60;1.33;;;9.90;91.00;;;;;;5005678;28;20301;-59
2022/09/19 01:09:39;;;;;;;3.50;1.37;;;9.90;92.20;;;;;;5004745;28;20474;-59
2022/09/19 01:12:23;;;;;;;1.60;1.50;;;9.90;93.40;;;;;;5000041;28;20431;-60
2022/09/19 01:15:09;;;;;;;2.27;1.50;;;9.90;94.50;;;;;;5008122;28;20454;-59
2022/09/19 01:17:45;;;;;;;1.50;1.40;;;9.80;94.80;;;;;;5008869;28;20427;-61
2022/09/19 01:20:17;;;;;;;3.60;1.47;;;9.80;94.60;;;;;;5001102;28;20478;-61
2022/09/19 01:22:43;;;;;;;1.10;1.10;;;9.80;94.30;;;;;;5006282;28;21148;-59
2022/09/19 01:25:14;;;;;;;1.70;1.27;;;9.70;91.00;;;;;;5008277;28;20505;-61
2022/09/19 01:28:20;;;;;;;1.73;1.40;;;9.70;90.80;;;;;;5008429;28;20246;-61
2022/09/19 01:31:18;;;;;;;1.20;1.10;;;9.70;91.90;;;;;;5009933;28;20415;-60
2022/09/19 01:34:02;;;;;;;1.30;1.20;;;9.70;90.40;;;;;;4984329;28;20918;-61
2022/09/19 01:36:32;;;;;;;1.33;1.23;;;9.60;90.30;;;;;;5007306;28;20463;-61
2022/09/19 01:39:02;;;;;;;1.30;1.20;;;9.60;90.60;;;;;;5005343;28;20868;-61
2022/09/19 01:41:28;;;;;;;1.33;1.23;;;9.60;90.50;;;;;;5010263;28;20481;-66
2022/09/19 01:43:54;;;;;;;2.60;1.50;;;9.60;90.90;;;;;;5026307;28;20415;-57
2022/09/19 01:46:37;;;;;;;1.33;1.23;;;9.60;91.60;;;;;;5002348;28;20538;-61
2022/09/19 01:49:19;;;;;;;1.27;1.17;;;9.60;92.30;;;;;;5003406;28;20227;-58
2022/09/19 01:51:56;;;;;;;3.67;1.37;;;9.60;92.70;;;;;;5008767;28;20455;-61
2022/09/19 01:54:21;;;;;;;1.80;1.27;;;9.60;92.40;;;;;;4991155;28;20432;-59
2022/09/19 01:57:05;;;;;;;0.93;0.93;;;9.60;92.40;;;;;;5008921;28;20477;-58
2022/09/19 02:00:01;;;;;;;1.63;1.20;;;9.60;93.10;;;;;;5009090;28;20556;-60
2022/09/19 02:02:33;;;;;;;2.20;1.70;;;9.60;94.10;;;;;;5003987;28;20514;-58
2022/09/19 02:05:21;;;;;;;1.40;1.30;;;9.60;93.50;;;;;;5008440;28;20431;-60
2022/09/19 02:08:08;;;;;;;6.33;1.50;;;9.60;94.90;;;;;;5007037;28;20434;-59
2022/09/19 02:10:54;;;;;;;6.40;1.70;;;9.60;96.90;;;;;;4998026;28;20459;-58
2022/09/19 02:13:24;;;;;;;1.47;1.30;;;9.60;97.10;;;;;;5007594;28;20407;-60
2022/09/19 02:15:56;;;;;;;2.13;1.30;;;9.60;99.10;;;;;;5005325;28;20497;-59
2022/09/19 02:18:35;;;;;;;1.90;1.33;;;9.50;99.80;;;;;;4998396;28;20435;-57
2022/09/19 02:21:23;;;;;;;1.50;1.40;;;9.50;99.90;;;;;;5005343;28;20511;-60
2022/09/19 02:23:52;;;;;;;1.40;1.30;;;9.50;99.90;;;;;;5008525;28;20519;-59
2022/09/19 02:26:21;;;;;;;2.73;1.60;;;9.50;99.90;;;;;;5005471;28;20490;-59
2022/09/19 02:28:54;;;;;;;4.00;1.30;;;9.40;99.90;;;;;;5011837;28;20914;-59
2022/09/19 02:31:26;;;;;;;1.80;1.70;;;9.40;99.90;;;;;;5006008;28;20485;-59
2022/09/19 02:33:53;;;;;;;4.30;1.50;;;9.30;99.90;;;;;;5011122;28;20930;-58
2022/09/19 02:36:22;;;;;;;1.93;1.30;;;9.30;99.90;;;;;;5008875;28;20517;-60
2022/09/19 02:38:59;;;;;;;4.60;1.30;;;9.30;99.90;;;;;;5011272;28;20431;-59
2022/09/19 02:41:36;;;;;;;1.40;1.30;;;9.30;99.90;;;;;;5011157;28;20427;-60
2022/09/19 02:44:19;;;;;;;1.80;1.50;;;9.30;99.90;;;;;;5012103;28;20403;-59
2022/09/19 02:47:05;;;;;;;3.00;1.50;;;9.20;99.90;;;;;;4993316;28;20428;-59
2022/09/19 02:49:52;;;;;;;2.03;1.40;;;9.30;99.90;;;;;;5001987;28;20447;-59
2022/09/19 02:52:24;;;;;;;1.47;1.30;;;9.30;99.90;;;;;;5007828;28;20493;-59
2022/09/19 02:54:54;;;;;;;1.50;1.40;;;9.30;99.90;;;;;;5002954;28;20892;-59
2022/09/19 02:57:24;;;;;;;1.50;1.40;;;9.30;99.90;;;;;;5008974;28;20529;-59
2022/09/19 02:59:52;;;;;;;1.60;1.50;;;9.30;99.90;;;;;;5005204;28;20497;-59
2022/09/19 03:02:25;;;;;;;2.13;1.53;;;9.30;99.90;;;;;;5003079;28;22040;-59
2022/09/19 03:04:56;;;;;;;1.53;1.43;;;9.30;99.90;;;;;;5002797;28;20492;-59
2022/09/19 03:07:40;;;;;;;1.60;1.37;;;9.20;99.90;;;;;;5007933;28;20816;-59
2022/09/19 03:10:12;;;;;;;1.30;1.30;;;9.20;99.90;;;;;;5008407;28;20470;-60
2022/09/19 03:12:40;;;;;;;1.50;1.40;;;9.20;99.90;;;;;;5008964;28;20527;-59
2022/09/19 03:15:07;;;;;;;1.50;1.40;;;9.20;99.90;;;;;;5005417;28;20475;-60
2022/09/19 03:17:40;;;;;;;5.07;1.73;;;9.20;99.90;;;;;;5010481;28;20490;-59
2022/09/19 03:20:11;;;;;;;1.47;1.37;;;9.20;99.90;;;;;;5007570;28;20439;-60
2022/09/19 03:22:38;;;;;;;6.00;1.43;;;9.20;99.90;;;;;;5009314;28;20494;-59
2022/09/19 03:25:04;;;;;;;1.40;1.30;;;9.20;99.90;;;;;;5009517;28;20933;-57
2022/09/19 03:27:30;;;;;;;1.60;1.50;;;9.20;99.90;;;;;;5006538;28;20435;-59
2022/09/19 03:29:55;;;;;;;1.47;1.40;;;9.20;99.90;;;;;;5010888;28;20921;-59
2022/09/19 03:32:25;;;;;;;6.10;1.50;;;9.20;99.90;;;;;;5011240;28;20176;-58
2022/09/19 03:34:55;;;;;;;1.53;1.43;;;9.20;99.90;;;;;;5003979;28;20649;-59
2022/09/19 03:37:21;;;;;;;1.50;1.40;;;9.20;99.90;;;;;;5003485;28;20432;-59
2022/09/19 03:39:47;;;;;;;1.33;1.30;;;9.20;99.90;;;;;;5003532;28;20435;-57
2022/09/19 03:42:14;;;;;;;1.50;1.40;;;9.20;99.90;;;;;;5009575;28;20828;-59
2022/09/19 03:44:39;;;;;;;1.30;1.20;;;9.10;99.90;;;;;;5006235;28;20615;-59
2022/09/19 03:47:05;;;;;;;2.60;1.30;;;9.00;99.90;;;;;;5013521;28;20465;-58
2022/09/19 03:49:30;;;;;;;2.30;1.63;;;9.00;99.90;;;;;;5008646;28;20703;-59
2022/09/19 03:51:57;;;;;;;2.33;1.40;;;9.00;99.90;;;;;;5000561;28;20311;-59
2022/09/19 03:54:23;;;;;;;1.87;1.33;;;8.90;99.90;;;;;;5002615;28;20207;-59
2022/09/19 03:56:49;;;;;;;2.03;1.47;;;8.80;99.90;;;;;;5006073;28;21006;-58
2022/09/19 03:59:14;;;;;;;1.47;1.37;;;8.80;99.90;;;;;;5004774;28;20184;-58
2022/09/19 04:01:40;;;;;;;1.60;1.50;;;8.70;99.90;;;;;;5003174;28;20486;-58
2022/09/19 04:04:06;;;;;;;1.70;1.50;;;8.70;99.90;;;;;;5000161;28;20201;-57
2022/09/19 04:06:32;;;;;;;2.10;1.30;;;8.70;99.90;;;;;;5004017;28;20213;-59
2022/09/19 04:09:00;;;;;;;1.27;1.17;;;8.70;99.90;;;;;;5001705;28;20962;-61
2022/09/19 04:11:27;;;;;;;1.70;1.60;;;8.60;99.90;;;;;;4995470;28;20183;-59
2022/09/19 04:13:53;;;;;;;1.53;1.30;;;8.60;99.90;;;;;;4996615;28;20463;-56
2022/09/19 04:16:19;;;;;;;1.80;1.30;;;8.60;99.90;;;;;;5000283;28;20505;-59
2022/09/19 04:18:50;;;;;;;1.23;1.10;;;8.60;99.90;;;;;;4998298;28;20954;-59
2022/09/19 04:21:18;;;;;;;5.47;1.43;;;8.60;99.90;;;;;;4999528;28;20610;-59
2022/09/19 04:23:45;;;;;;;2.37;1.40;;;8.60;99.90;;;;;;4997358;28;20442;-60
2022/09/19 04:26:14;;;;;;;1.30;1.20;;;8.60;99.90;;;;;;4997826;28;20888;-61
2022/09/19 04:28:40;;;;;;;3.67;1.47;;;8.50;99.90;;;;;;4995133;28;20532;-61
2022/09/19 04:31:08;;;;;;;1.30;1.20;;;8.50;99.90;;;;;;4999368;28;20563;-61
2022/09/19 04:33:34;;;;;;;4.23;1.47;;;8.50;99.90;;;;;;4998559;28;20435;-61
2022/09/19 04:36:00;;;;;;;3.17;1.17;;;8.50;99.90;;;;;;5004518;28;20463;-57
2022/09/19 04:38:30;;;;;;;2.97;1.40;;;8.40;99.90;;;;;;4997885;28;20467;-60
2022/09/19 04:40:56;;;;;;;2.97;1.57;;;8.40;99.90;;;;;;5001519;28;20427;-60
2022/09/19 04:43:24;;;;;;;4.13;1.60;;;8.40;99.90;;;;;;4997340;28;20523;-60
2022/09/19 04:45:50;;;;;;;3.97;1.53;;;8.40;99.90;;;;;;5000651;28;20829;-59
2022/09/19 04:48:19;;;;;;;1.50;1.40;;;8.40;99.90;;;;;;5003833;28;20434;-59
2022/09/19 04:50:50;;;;;;;3.53;1.33;;;8.30;99.90;;;;;;5006517;28;21211;-60
2022/09/19 04:53:27;;;;;;;3.13;1.60;;;8.40;99.90;;;;;;4996616;28;20556;-59
2022/09/19 04:55:54;;;;;;;1.47;1.37;;;8.40;99.90;;;;;;4999074;28;20461;-60
2022/09/19 04:58:20;;;;;;;3.90;1.60;;;8.40;99.90;;;;;;5001638;28;20451;-60
2022/09/19 05:00:53;;;;;;;2.40;1.60;;;8.40;99.90;;;;;;5004315;28;20431;-60
2022/09/19 05:03:20;;;;;;;3.40;2.20;;;8.30;99.90;;;;;;5007690;28;20447;-59
2022/09/19 05:05:51;;;;;;;4.20;2.00;;;8.30;99.90;;;;;;5007500;28;20904;-60
2022/09/19 05:08:20;;;;;;;1.70;1.60;;;8.30;99.90;;;;;;5006922;28;20436;-60
2022/09/19 05:10:47;;;;;;;2.70;1.63;;;8.30;99.90;;;;;;5008350;28;20470;-59
2022/09/19 05:13:13;;;;;;;4.60;1.53;;;8.20;99.90;;;;;;5008954;28;20437;-60
2022/09/19 05:15:41;;;;;;;3.67;1.83;;;8.20;99.90;;;;;;5008682;28;20882;-60
2022/09/19 05:18:10;;;;;;;6.30;1.60;;;8.10;99.90;;;;;;5008798;28;20181;-61
2022/09/19 05:20:36;;;;;;;3.77;1.73;;;8.10;99.90;;;;;;5004660;28;20994;-60
2022/09/19 05:23:02;;;;;;;3.60;2.00;;;8.00;99.90;;;;;;5002383;28;20435;-59
2022/09/19 05:25:29;;;;;;;3.07;2.00;;;8.00;99.90;;;;;;5007505;28;21134;-60
2022/09/19 05:28:05;;;;;;;3.23;1.60;;;8.00;99.90;;;;;;4990145;28;20177;-60
2022/09/19 05:30:32;;;;;;;2.60;1.57;;;8.00;99.90;;;;;;5008996;28;20467;-60
2022/09/19 05:32:59;;;;;;;3.33;1.50;;;7.90;99.90;;;;;;5008870;28;20427;-55
2022/09/19 05:35:26;;;;;;;7.20;1.73;;;7.90;99.90;;;;;;5001004;28;20478;-60
2022/09/19 05:37:52;;;;;;;4.97;1.80;;;7.90;99.90;;;;;;5013675;28;20438;-60
2022/09/19 05:40:18;;;;;;;2.57;1.27;;;7.90;99.90;;;;;;5012480;28;21210;-60
2022/09/19 05:42:49;;;;;;;4.63;1.63;;;7.80;99.90;;;;;;5007246;28;20443;-60
2022/09/19 05:45:16;;;;;;;5.53;2.10;;;7.80;99.90;;;;;;5001915;28;20561;-59
2022/09/19 05:47:41;;;;;;;4.60;1.97;;;7.80;99.90;;;;;;5007687;28;21052;-57
2022/09/19 05:50:09;;;;;;;4.90;1.60;;;7.80;99.90;;;;;;5008346;28;20557;-59
2022/09/19 05:55:25;;;;;;;2.57;1.80;;;7.70;99.90;;;;;;5004125;28;20466;-59
2022/09/19 05:57:52;;;;;;;9.13;1.90;;;7.70;99.90;;;;;;5010045;28;20453;-60
2022/09/19 06:00:19;;;;;;;3.27;1.90;;;7.70;99.90;;;;;;5010325;28;20516;-60
2022/09/19 06:02:56;;;;;;;2.30;1.80;;;7.80;99.90;;;;;;5012482;28;20435;-61
2022/09/19 06:05:23;;;;;;;2.43;1.63;;;7.80;99.90;;;;;;5008428;28;20474;-60
2022/09/19 06:07:50;;;;;;;3.47;2.00;;;7.90;99.90;;;;;;5007353;28;20517;-59
2022/09/19 06:10:16;;;;;;;7.33;2.33;;;7.90;99.90;;;;;;5010408;28;20505;-58
2022/09/19 06:12:41;;;;;;;1.90;1.40;;;8.00;99.90;;;;;;5010088;28;20455;-60
2022/09/19 06:15:08;;;;;;;4.07;1.83;;;8.00;99.90;;;;;;5012520;28;20196;-58
2022/09/19 06:17:33;;;;;;;1.83;1.43;;;8.10;99.90;;;;;;5005936;28;20635;-59
2022/09/19 06:19:59;;;;;;;11.40;1.60;;;8.10;99.90;;;;;;5011487;28;21012;-59
2022/09/19 06:22:26;;;;;;;3.60;1.93;;;8.10;99.90;;;;;;5007218;28;20188;-58
2022/09/19 06:24:51;;;;;;;4.03;2.10;;;8.10;99.90;;;;;;5011386;28;20235;-59
2022/09/19 06:27:17;;;;;;;3.00;1.50;;;8.10;99.50;;;;;;5011188;28;20521;-58
2022/09/19 06:29:43;;;;;;;3.33;1.70;;;8.10;99.70;;;;;;5009968;28;20200;-58
2022/09/19 06:32:09;;;;;;;5.60;2.00;;;8.10;98.60;;;;;;5010900;28;20674;-59
2022/09/19 06:34:35;;;;;;;2.43;1.63;;;8.10;99.30;;;;;;5012411;28;20640;-58
2022/09/19 06:37:00;;;;;;;7.80;1.80;;;8.10;98.00;;;;;;5011071;28;20443;-56
2022/09/19 06:39:26;;;;;;;5.70;2.50;;;8.10;98.40;;;;;;5008595;28;20212;-60
2022/09/19 06:41:51;;;;;;;8.07;2.00;;;8.10;98.20;;;;;;5012023;28;20195;-56
2022/09/19 06:44:17;;;;;;;5.07;3.07;;;8.10;97.70;;;;;;5011178;28;20188;-55
2022/09/19 06:46:43;;;;;;;7.60;2.07;;;8.10;96.20;;;;;;5007057;28;20266;-55
2022/09/19 06:49:09;;;;;;;3.47;2.03;;;8.20;97.90;;;;;;5007938;28;20969;-56
2022/09/19 06:51:35;;;;;;;4.40;2.17;;;8.30;98.10;;;;;;5001899;28;20263;-58
2022/09/19 06:54:01;;;;;;;1.60;1.43;;;8.30;96.90;;;;;;5009627;28;20625;-58
2022/09/19 06:56:27;;;;;;;7.90;1.80;;;8.40;95.00;;;;;;5010134;28;20970;-54
2022/09/19 06:58:53;;;;;;;5.73;2.00;;;8.40;95.00;;;;;;5008570;28;20439;-55
2022/09/19 07:01:18;;;;;;;2.10;1.60;;;8.40;95.20;;;;;;5011074;28;20449;-53
2022/09/19 07:03:44;;;;;;;3.30;1.80;;;8.50;93.20;;;;;;5012194;28;20180;-58
2022/09/19 07:06:10;;;;;;;7.33;1.87;;;8.50;92.90;;;;;;5009970;28;20235;-55
2022/09/19 07:08:36;;;;;;;2.93;1.70;;;8.60;91.50;;;;;;5007359;28;20222;-62
2022/09/19 07:11:02;;;;;;;6.63;1.87;;;8.60;89.80;;;;;;5012016;28;20196;-56
2022/09/19 07:13:28;;;;;;;6.33;1.60;;;8.70;87.50;;;;;;5010674;28;20432;-58
2022/09/19 07:15:56;;;;;;;3.63;1.93;;;8.70;88.80;;;;;;5000068;28;20232;-57
2022/09/19 07:18:22;;;;;;;4.43;2.10;;;8.80;88.40;;;;;;5009671;28;20559;-56
2022/09/19 07:20:48;;;;;;;7.63;2.27;;;8.80;86.20;;;;;;5010753;28;20911;-58
2022/09/19 07:23:18;;;;;;;5.77;1.90;;;8.90;87.60;;;;;;5009936;28;20181;-53
2022/09/19 07:25:44;;;;;;;4.57;1.80;;;8.90;85.10;;;;;;5008365;28;20311;-60
2022/09/19 07:28:16;;;;;;;9.23;2.23;;;9.00;84.80;;;;;;5007155;28;20463;-56
2022/09/19 07:30:43;;;;;;;11.43;2.33;;;9.00;79.60;;;;;;5012388;28;20880;-59
2022/09/19 07:33:10;;;;;;;5.30;1.60;;;9.00;78.80;;;;;;5005202;28;20442;-55
2022/09/19 07:35:41;;;;;;;12.27;2.23;;;9.10;81.30;;;;;;5007895;28;20764;-56
2022/09/19 07:38:11;;;;;;;8.93;1.80;;;9.20;79.50;;;;;;5008713;28;20443;-57
2022/09/19 07:40:37;;;;;;;6.80;1.80;;;9.30;79.00;;;;;;5006766;28;20435;-55
2022/09/19 07:43:04;;;;;;;8.03;1.83;;;9.40;77.30;;;;;;5007580;28;21155;-58
2022/09/19 07:45:32;;;;;;;3.90;1.73;;;9.40;77.40;;;;;;5008972;28;20459;-51
2022/09/19 07:47:58;;;;;;;9.87;1.90;;;9.50;74.00;;;;;;5009397;28;20431;-52
2022/09/19 07:50:24;;;;;;;4.50;1.60;;;9.50;72.90;;;;;;5005475;28;20463;-57
2022/09/19 07:53:09;;;;;;;3.43;1.57;;;9.50;73.70;;;;;;5004891;28;20200;-57
2022/09/19 07:55:35;;;;;;;11.47;2.57;;;9.60;72.70;;;;;;5005615;28;20466;-56
2022/09/19 07:58:03;;;;;;;2.90;1.63;;;9.70;72.80;;;;;;5011585;28;20988;-57
2022/09/19 08:00:31;;;;;;;4.60;2.10;;;9.70;72.40;;;;;;4999422;28;20465;-58
2022/09/19 08:03:04;;;;;;;3.70;1.97;;;9.80;71.50;;;;;;5010825;28;20431;-54
2022/09/19 08:05:36;;;;;;;6.30;2.10;;;9.80;71.50;;;;;;5008970;28;20554;-55
2022/09/19 08:08:02;;;;;;;1.87;1.47;;;9.90;69.60;;;;;;5010863;28;20550;-58
2022/09/19 08:10:28;;;;;;;5.83;2.30;;;9.90;68.50;;;;;;5006517;28;20471;-60
2022/09/19 08:13:02;;;;;;;6.03;1.90;;;9.90;68.90;;;;;;5010628;28;20469;-56
2022/09/19 08:15:29;;;;;;;13.80;1.77;;;10.00;68.20;;;;;;5006812;28;20343;-54
2022/09/19 08:18:13;;;;;;;8.93;1.77;;;10.00;68.40;;;;;;5008882;28;20953;-58
2022/09/19 08:20:40;;;;;;;14.60;2.33;;;10.10;66.10;;;;;;5003297;28;20447;-58
2022/09/19 08:23:09;;;;;;;4.80;1.93;;;10.10;66.20;;;;;;5010564;28;20420;-54
2022/09/19 08:25:38;;;;;;;3.30;2.20;;;10.20;67.50;;;;;;5007256;28;20978;-58
2022/09/19 08:28:04;;;;;;;8.23;2.10;;;10.20;66.80;;;;;;5009172;28;20803;-56
2022/09/19 08:30:31;;;;;;;4.23;1.77;;;10.30;67.50;;;;;;5008593;28;20506;-55
2022/09/19 08:32:59;;;;;;;6.10;1.70;;;10.40;65.90;;;;;;5010995;28;20434;-60
2022/09/19 08:35:25;;;;;;;2.90;1.90;;;10.50;64.90;;;;;;5007410;28;20482;-56
2022/09/19 08:37:56;;;;;;;8.10;2.10;;;10.50;64.90;;;;;;5005226;28;20435;-58
2022/09/19 08:40:34;;;;;;;5.60;1.73;;;10.60;65.10;;;;;;5008803;28;20443;-58
2022/09/19 08:43:11;;;;;;;11.83;1.80;;;10.70;65.10;;;;;;5003803;28;20439;-57
2022/09/19 08:45:59;;;;;;;7.43;1.57;;;10.80;65.40;;;;;;5004802;28;20490;-57
2022/09/19 08:49:11;;;;;;;3.73;1.60;;;10.90;63.20;;;;;;5002254;28;20443;-55
2022/09/19 08:51:54;;;;;;;6.60;1.80;;;10.90;63.10;;;;;;4971381;28;20447;-57
2022/09/19 08:54:35;;;;;;;4.60;1.93;;;11.00;63.10;;;;;;5000002;28;20437;-60
2022/09/19 08:57:03;;;;;;;6.67;1.93;;;11.20;63.30;;;;;;5007438;28;20435;-55
2022/09/19 08:59:42;;;;;;;4.07;1.57;;;11.30;62.20;;;;;;5006170;28;20428;-55
2022/09/19 09:02:23;;;;;;;6.63;2.07;;;11.40;62.50;;;;;;5007178;28;20463;-55
2022/09/19 09:04:49;;;;;;;4.27;1.80;;;11.50;62.00;;;;;;5005715;28;20447;-56
2022/09/19 09:07:23;;;;;;;5.57;1.80;;;11.60;61.00;;;;;;5005580;28;20441;-59
2022/09/19 09:10:18;;;;;;;6.63;1.67;;;11.80;61.30;;;;;;5008530;28;20211;-59
2022/09/19 09:13:09;;;;;;;9.20;1.90;;;11.90;59.70;;;;;;4975898;28;20568;-56
2022/09/19 09:16:00;;;;;;;4.57;1.60;;;12.00;59.70;;;;;;5009271;28;20427;-59
2022/09/19 09:18:44;;;;;;;4.20;1.90;;;12.10;58.30;;;;;;4984026;28;20440;-58
2022/09/19 09:21:23;;;;;;;12.03;2.00;;;12.10;57.70;;;;;;5001572;28;20567;-57
2022/09/19 09:23:54;;;;;;;8.53;1.77;;;12.20;57.10;;;;;;5007532;28;20439;-55
2022/09/19 09:26:25;;;;;;;6.77;1.60;;;12.20;57.20;;;;;;5013116;28;20443;-56
2022/09/19 09:29:25;;;;;;;5.43;1.90;;;12.30;58.00;;;;;;5021334;28;20442;-59
2022/09/19 09:31:59;;;;;;;5.53;2.03;;;12.30;57.30;;;;;;5010697;28;20427;-53
2022/09/19 09:34:30;;;;;;;3.63;1.60;;;12.40;58.00;;;;;;5012036;28;20836;-51
2022/09/19 09:37:10;;;;;;;2.17;1.10;;;12.60;56.70;;;;;;5010336;28;20447;-59
2022/09/19 09:42:50;;;;;;;4.93;1.43;;;12.70;55.90;;;;;;5001972;28;20462;-54
2022/09/19 09:45:33;;;;;;;8.47;1.73;;;12.70;55.80;;;;;;5010790;28;20891;-54
2022/09/19 09:48:24;;;;;;;9.93;1.50;;;12.50;55.60;;;;;;5010956;28;20618;-56
2022/09/19 09:51:00;;;;;;;4.20;1.57;;;12.40;56.10;;;;;;5007211;28;20455;-54
2022/09/19 09:53:31;;;;;;;5.13;1.83;;;12.50;58.50;;;;;;5008056;28;20817;-58
2022/09/19 09:56:35;;;;;;;7.33;1.73;;;12.70;58.90;;;;;;5009722;28;21179;-56
2022/09/19 10:05:36;;;;;;;2.80;1.43;;;12.90;56.70;;;;;;5008262;28;20823;-54
2022/09/19 10:08:54;;;;;;;5.40;1.70;;;12.80;56.60;;;;;;5008171;28;20434;-52
2022/09/19 10:11:22;;;;;;;2.60;1.70;;;12.80;55.10;;;;;;5002538;28;20857;-53
2022/09/19 10:14:14;;;;;;;4.47;1.50;;;12.60;55.70;;;;;;5011558;28;20521;-55
2022/09/19 10:16:46;;;;;;;6.73;1.70;;;12.60;57.10;;;;;;5010793;28;20912;-56
2022/09/19 10:19:35;;;;;;;7.00;1.70;;;12.90;58.10;;;;;;5009429;28;20431;-60
2022/09/19 10:22:01;;;;;;;5.10;1.80;;;13.00;56.80;;;;;;5004635;28;20419;-53
2022/09/19 10:24:45;;;;;;;4.63;1.50;;;13.20;58.90;;;;;;5011458;28;20763;-51
2022/09/19 10:27:11;;;;;;;3.10;2.17;;;13.70;59.80;;;;;;5007714;28;20184;-55
2022/09/19 10:29:50;;;;;;;4.70;1.60;;;14.00;59.10;;;;;;5012793;28;20498;-53
2022/09/19 10:32:24;;;;;;;7.07;1.60;;;14.40;58.40;;;;;;5008928;28;20184;-52
2022/09/19 10:34:52;;;;;;;2.80;1.87;;;14.60;58.20;;;;;;5004018;28;20447;-54
2022/09/19 10:37:23;;;;;;;5.33;1.70;;;14.90;57.80;;;;;;5008162;28;21338;-58
2022/09/19 10:39:58;;;;;;;3.00;1.53;;;15.10;57.00;;;;;;5007794;28;20478;-54
2022/09/19 10:42:33;;;;;;;3.60;1.70;;;15.30;56.50;;;;;;5008005;28;20444;-54
2022/09/19 10:45:00;;;;;;;6.50;1.90;;;15.50;54.50;;;;;;5004790;28;21157;-55
2022/09/19 10:47:28;;;;;;;2.77;1.47;;;15.60;54.00;;;;;;5009012;28;20538;-57
2022/09/19 10:50:01;;;;;;;3.17;1.37;;;15.50;53.90;;;;;;5008505;28;21273;-54
2022/09/19 10:52:30;;;;;;;7.97;1.40;;;15.30;53.60;;;;;;5008445;28;21103;-53
2022/09/19 10:55:00;;;;;;;3.03;1.10;;;15.20;54.20;;;;;;5010144;28;21185;-56
2022/09/19 10:57:34;;;;;;;4.07;1.10;;;15.30;53.50;;;;;;5010347;28;20506;-55
2022/09/19 11:00:04;;;;;;;9.47;1.33;;;15.50;53.90;;;;;;5010006;28;20435;-55
2022/09/19 11:02:32;;;;;;;2.00;0.90;;;15.60;51.60;;;;;;5005071;28;20535;-56
2022/09/19 11:05:04;;;;;;;2.00;1.10;;;15.70;51.40;;;;;;5008262;28;20482;-54
2022/09/19 11:07:45;;;;;;;2.57;0.93;;;15.70;51.40;;;;;;5009247;28;20435;-56
2022/09/19 11:10:38;;;;;;;2.93;1.00;;;15.70;50.70;;;;;;5008322;28;20462;-54
2022/09/19 11:13:17;;;;;;;4.33;1.00;;;15.80;51.80;;;;;;5008054;28;20459;-53
2022/09/19 11:16:09;;;;;;;2.27;1.00;;;16.00;52.80;;;;;;5010557;28;20973;-54
2022/09/19 11:18:54;;;;;;;2.20;1.03;;;16.30;52.90;;;;;;5003144;28;20428;-52
2022/09/19 11:21:45;;;;;;;3.27;0.97;;;16.50;47.90;;;;;;5004609;28;20445;-52
2022/09/19 11:24:24;;;;;;;1.53;0.90;;;16.30;46.30;;;;;;5000385;28;20497;-55
2022/09/19 11:27:02;;;;;;;4.83;1.17;;;16.00;46.30;;;;;;5001841;28;20458;-55
2022/09/19 11:29:41;;;;;;;2.07;1.20;;;16.10;48.80;;;;;;4999948;28;20558;-56
2022/09/19 11:32:14;;;;;;;2.00;0.90;;;16.20;48.80;;;;;;5011277;28;20818;-52
2022/09/19 11:34:54;;;;;;;3.47;1.07;;;16.20;49.00;;;;;;5004210;28;20509;-53
2022/09/19 11:37:38;;;;;;;2.80;0.87;;;16.00;49.00;;;;;;5004324;28;21009;-53
2022/09/19 11:40:31;;;;;;;4.63;1.07;;;15.90;49.90;;;;;;5006745;28;20470;-52
2022/09/19 11:46:37;;;;;;;1.77;1.13;;;15.50;51.20;;;;;;5960031;22;20768;-62
2022/09/19 11:54:21;;;;;;;4.47;1.20;;;15.10;51.30;;;;;;5004663;28;20248;-62
2022/09/19 11:56:48;;;;;;;5.93;1.40;;;15.00;50.70;;;;;;5029101;28;20461;-63
2022/09/19 11:59:28;;;;;;;1.33;0.87;;;15.00;51.10;;;;;;5009314;28;20933;-61
2022/09/19 12:02:00;;;;;;;0.80;0.80;;;14.90;50.10;;;;;;5021619;28;20437;-63
2022/09/19 12:04:53;;;;;;;3.40;1.00;;;14.70;50.00;;;;;;5007368;28;20436;-64
2022/09/19 12:07:42;;;;;;;3.07;1.00;;;14.60;50.50;;;;;;5025992;28;20438;-62
2022/09/19 12:10:22;;;;;;;1.07;0.97;;;14.50;51.00;;;;;;5002619;28;20466;-63
2022/09/19 12:12:57;;;;;;;2.70;1.10;;;14.30;50.00;;;;;;5028349;28;20516;-63
2022/09/19 12:15:28;;;;;;;2.00;0.80;;;14.10;50.30;;;;;;5007449;28;20477;-62
2022/09/19 12:18:03;;;;;;;7.77;1.73;;;14.00;50.80;;;;;;5028628;28;20422;-62
2022/09/19 12:20:42;;;;;;;3.03;1.40;;;13.80;51.30;;;;;;5029047;28;20473;-63
2022/09/19 12:26:18;;;;;;;3.10;1.30;;;13.60;53.00;;;;;;5030043;28;20425;-62
2022/09/19 12:29:03;;;;;;;5.03;1.07;;;13.60;53.30;;;;;;5011254;28;20476;-63
2022/09/19 12:31:34;;;;;;;1.10;1.00;;;13.60;53.40;;;;;;5026060;28;20982;-63
2022/09/19 12:34:11;;;;;;;4.33;1.10;;;13.70;53.80;;;;;;5010904;28;20965;-63
2022/09/19 12:36:49;;;;;;;2.80;1.17;;;13.80;52.90;;;;;;5026590;28;20434;-63
2022/09/19 12:39:35;;;;;;;1.93;1.10;;;14.00;53.30;;;;;;5010312;28;20438;-62
2022/09/19 12:42:11;;;;;;;3.00;1.10;;;14.10;52.30;;;;;;4999714;28;21040;-63
2022/09/19 12:44:51;;;;;;;0.97;0.90;;;14.10;52.00;;;;;;5028197;28;20519;-62
2022/09/19 12:47:41;;;;;;;8.87;1.13;;;14.10;51.70;;;;;;5026645;28;20449;-62
2022/09/19 12:50:22;;;;;;;6.63;1.20;;;14.10;51.70;;;;;;5022472;28;20798;-62
2022/09/19 12:53:17;;;;;;;3.20;1.07;;;14.10;51.60;;;;;;5023939;28;20450;-62
2022/09/19 12:56:00;;;;;;;1.30;1.00;;;14.20;51.40;;;;;;5026381;28;20430;-66
2022/09/19 12:58:36;;;;;;;1.80;1.00;;;14.30;52.20;;;;;;5021151;28;20430;-63
2022/09/19 13:01:26;;;;;;;1.10;1.00;;;14.30;51.50;;;;;;5027225;28;20525;-62
2022/09/19 13:04:34;;;;;;;2.27;1.13;;;14.50;51.70;;;;;;5023849;28;20453;-63
2022/09/19 13:07:30;;;;;;;4.97;1.47;;;14.60;51.30;;;;;;5005032;28;21284;-61
2022/09/19 13:10:17;;;;;;;3.47;1.20;;;15.00;52.30;;;;;;5024230;28;20569;-63
2022/09/19 13:13:09;;;;;;;2.60;1.10;;;15.70;52.40;;;;;;5027180;28;20450;-63
2022/09/19 13:15:48;;;;;;;6.20;1.23;;;15.90;50.70;;;;;;5032014;28;20462;-63
2022/09/19 13:23:55;;;;;;;9.43;1.40;;;16.00;50.40;;;;;;5030695;28;20516;-62
2022/09/19 13:26:25;;;;;;;4.67;1.03;;;16.40;51.30;;;;;;5029611;28;20449;-62
2022/09/19 13:28:57;;;;;;;4.37;1.33;;;17.00;50.40;;;;;;5040854;28;20488;-63
2022/09/19 13:31:39;;;;;;;2.57;1.13;;;17.50;47.60;;;;;;5031821;28;20441;-63
2022/09/19 13:34:33;;;;;;;1.00;0.90;;;17.90;47.20;;;;;;5029509;28;20438;-63
2022/09/19 13:37:05;;;;;;;2.07;1.43;;;18.10;46.10;;;;;;5024791;28;20891;-60
2022/09/19 13:40:05;;;;;;;5.10;1.43;;;18.50;46.70;;;;;;5032019;28;20452;-59
2022/09/19 13:42:58;;;;;;;7.60;1.20;;;18.30;45.30;;;;;;5027454;28;20466;-62
2022/09/19 13:45:41;;;;;;;2.87;1.20;;;17.80;46.20;;;;;;5027528;28;20426;-63
2022/09/19 13:48:24;;;;;;;3.87;1.30;;;17.30;47.30;;;;;;5021373;28;20450;-63
2022/09/19 13:50:58;;;;;;;3.90;1.10;;;17.00;47.20;;;;;;5025186;28;20473;-62
2022/09/19 13:53:41;;;;;;;2.50;1.13;;;17.00;47.30;;;;;;5022906;28;20454;-61
2022/09/19 13:56:32;;;;;;;1.73;1.10;;;16.80;46.40;;;;;;5027209;28;20521;-63
2022/09/19 13:59:15;;;;;;;2.97;1.20;;;16.50;48.70;;;;;;5023490;28;20461;-63